FLN weather

Hercílio Luz International Airport
Florianópolis, Santa Catarina, Brazil

Public forecast

Using degrees Celsius for public forecast. Weather courtesy of forecast.io.

Current aviation weather report (METAR) for Hercílio Luz International Airport

Retrieved 2020/07/12 09:00 UTC (47 minutes ago):

SBFL 120900Z 32008KT CAVOK 17/16 Q1010

Aviation forecast (TAF) for Hercílio Luz International Airport

Retrieved 2020/07/12 06:00 UTC (4 hours ago):

TAF SBFL 120300Z 1206/1306 31008KT 5000 -RA SCT012 BKN020 TX21/1216Z TN17/1305Z BECMG 1212/1214 8000 NSW SCT020 RMK PEA